Time;durP1;ratioP1;P1;durP2;ratioP2;P2;SDS_P1;SDS_P2;PMS_P1;PMS_P2;Temp;Humidity;BMP_temperature;BMP_pressure;BME280_temperature;BME280_humidity;BME280_pressure;Samples;Min_cycle;Max_cycle;Signal;HPM_P1;HPM_P2
2024/03/05 00:00:28;;;;;;;6.00;1.25;;;;;;;;;;2089112;28;20110;-51
2024/03/05 00:01:30;;;;;;;7.43;1.02;;;;;;;;;;2089222;28;20095;-51
2024/03/05 00:02:32;;;;;;;7.55;1.30;;;;;;;;;;2089221;28;20016;-51
2024/03/05 00:03:33;;;;;;;3.65;0.98;;;;;;;;;;2089456;28;20017;-50
2024/03/05 00:04:35;;;;;;;3.50;1.00;;;;;;;;;;2089080;28;20013;-51
2024/03/05 00:05:36;;;;;;;7.88;1.15;;;;;;;;;;2089029;28;20040;-47
2024/03/05 00:06:37;;;;;;;3.10;1.10;;;;;;;;;;2088246;28;20032;-49
2024/03/05 00:07:38;;;;;;;2.95;0.85;;;;;;;;;;2088758;28;20387;-49
2024/03/05 00:08:40;;;;;;;4.85;0.90;;;;;;;;;;2081797;28;20018;-49
2024/03/05 00:09:41;;;;;;;3.78;1.10;;;;;;;;;;2087705;28;20078;-48
2024/03/05 00:10:42;;;;;;;3.25;0.80;;;;;;;;;;2088789;28;20021;-49
2024/03/05 00:11:44;;;;;;;3.92;0.90;;;;;;;;;;2088938;28;20529;-49
2024/03/05 00:12:46;;;;;;;4.55;0.80;;;;;;;;;;2089039;28;20017;-49
2024/03/05 00:13:48;;;;;;;7.38;1.20;;;;;;;;;;2088628;28;20035;-46
2024/03/05 00:14:49;;;;;;;5.93;1.02;;;;;;;;;;2083404;28;20114;-48
2024/03/05 00:15:52;;;;;;;3.83;0.85;;;;;;;;;;2085341;28;20025;-49
2024/03/05 00:16:53;;;;;;;5.68;0.95;;;;;;;;;;2088068;28;20021;-47
2024/03/05 00:17:55;;;;;;;3.95;0.85;;;;;;;;;;2089091;28;20460;-49
2024/03/05 00:18:56;;;;;;;4.90;1.10;;;;;;;;;;2089267;28;20017;-48
2024/03/05 00:19:57;;;;;;;4.68;0.93;;;;;;;;;;2088216;28;20031;-46
2024/03/05 00:20:59;;;;;;;4.15;1.00;;;;;;;;;;2087889;28;20028;-47
2024/03/05 00:22:00;;;;;;;3.90;1.00;;;;;;;;;;2082466;28;20435;-48
2024/03/05 00:23:01;;;;;;;4.63;0.80;;;;;;;;;;2088177;28;20086;-48
2024/03/05 00:24:02;;;;;;;3.95;0.95;;;;;;;;;;2088777;28;20685;-47
2024/03/05 00:25:04;;;;;;;4.75;1.08;;;;;;;;;;2090916;28;20017;-48
2024/03/05 00:26:05;;;;;;;3.63;0.93;;;;;;;;;;2091229;28;20036;-48
2024/03/05 00:27:08;;;;;;;4.35;0.98;;;;;;;;;;2086857;28;20026;-48
2024/03/05 00:28:10;;;;;;;5.72;0.85;;;;;;;;;;2083667;28;20125;-46
2024/03/05 00:29:11;;;;;;;5.20;1.10;;;;;;;;;;2090427;28;20021;-48
2024/03/05 00:30:13;;;;;;;6.30;0.93;;;;;;;;;;2091901;28;20017;-47
2024/03/05 00:31:14;;;;;;;4.75;0.80;;;;;;;;;;2091414;28;20438;-48
2024/03/05 00:32:16;;;;;;;4.88;1.10;;;;;;;;;;2091389;28;20020;-47
2024/03/05 00:33:17;;;;;;;6.68;0.88;;;;;;;;;;2090210;28;20021;-47
2024/03/05 00:34:19;;;;;;;4.60;0.98;;;;;;;;;;2090351;28;20155;-47
2024/03/05 00:35:20;;;;;;;3.22;0.80;;;;;;;;;;2092213;28;20078;-49
2024/03/05 00:36:21;;;;;;;6.85;1.08;;;;;;;;;;2099137;28;20027;-47
2024/03/05 00:37:23;;;;;;;3.97;1.13;;;;;;;;;;2090615;28;20029;-49
2024/03/05 00:38:24;;;;;;;2.88;0.60;;;;;;;;;;2091450;28;20005;-47
2024/03/05 00:39:25;;;;;;;4.32;1.05;;;;;;;;;;2091243;28;20037;-49
2024/03/05 00:40:27;;;;;;;4.20;0.90;;;;;;;;;;2091379;28;20078;-50
2024/03/05 00:41:28;;;;;;;3.50;0.90;;;;;;;;;;2091480;28;20029;-46
2024/03/05 00:42:30;;;;;;;5.13;1.00;;;;;;;;;;2091485;28;20100;-51
2024/03/05 00:43:31;;;;;;;5.93;0.90;;;;;;;;;;2088614;28;20030;-50
2024/03/05 00:44:32;;;;;;;4.40;0.95;;;;;;;;;;2091618;28;20032;-50
2024/03/05 00:45:34;;;;;;;3.35;1.10;;;;;;;;;;2091616;28;20020;-50
2024/03/05 00:46:36;;;;;;;5.05;0.77;;;;;;;;;;2090707;28;20019;-49
2024/03/05 00:47:37;;;;;;;5.55;1.00;;;;;;;;;;2091047;28;20024;-48
2024/03/05 00:48:39;;;;;;;3.95;0.80;;;;;;;;;;2090659;28;20511;-47
2024/03/05 00:49:41;;;;;;;4.82;0.90;;;;;;;;;;2090357;28;20013;-47
2024/03/05 00:50:42;;;;;;;3.53;0.90;;;;;;;;;;2083581;28;20099;-49
2024/03/05 00:51:43;;;;;;;4.55;0.85;;;;;;;;;;2089144;28;20033;-48
2024/03/05 00:52:44;;;;;;;4.20;0.70;;;;;;;;;;2091573;28;20028;-48
2024/03/05 00:53:47;;;;;;;5.93;0.90;;;;;;;;;;2091600;28;20063;-47
2024/03/05 00:54:48;;;;;;;6.07;1.17;;;;;;;;;;2091265;28;20491;-47
2024/03/05 00:55:49;;;;;;;4.75;0.77;;;;;;;;;;2091621;28;20009;-49
2024/03/05 00:56:51;;;;;;;6.20;1.10;;;;;;;;;;2091511;28;20015;-46
2024/03/05 00:57:52;;;;;;;2.90;0.70;;;;;;;;;;2091263;28;20029;-47
2024/03/05 00:58:54;;;;;;;6.03;0.90;;;;;;;;;;2091370;28;20013;-50
2024/03/05 00:59:55;;;;;;;6.20;0.95;;;;;;;;;;2091553;28;20053;-51
2024/03/05 01:00:57;;;;;;;4.32;0.90;;;;;;;;;;2091213;28;20107;-51
2024/03/05 01:02:01;;;;;;;5.88;1.38;;;;;;;;;;2090809;28;20096;-50
2024/03/05 01:03:02;;;;;;;5.55;1.38;;;;;;;;;;2096007;28;20019;-50
2024/03/05 01:04:06;;;;;;;6.07;1.45;;;;;;;;;;2095088;28;20377;-50
2024/03/05 01:05:09;;;;;;;5.35;0.82;;;;;;;;;;2082915;28;20021;-49
2024/03/05 01:06:11;;;;;;;3.30;0.75;;;;;;;;;;2086366;28;20111;-47
2024/03/05 01:07:12;;;;;;;5.95;0.93;;;;;;;;;;2085103;28;20115;-47
2024/03/05 01:08:13;;;;;;;4.88;1.20;;;;;;;;;;2091576;28;20028;-50
2024/03/05 01:09:18;;;;;;;3.63;0.60;;;;;;;;;;2086384;28;20525;-49
2024/03/05 01:10:19;;;;;;;4.47;0.93;;;;;;;;;;2090792;28;20013;-49
2024/03/05 01:11:21;;;;;;;3.50;0.77;;;;;;;;;;2090929;28;20104;-49
2024/03/05 01:12:22;;;;;;;3.13;0.80;;;;;;;;;;2090762;28;20029;-49
2024/03/05 01:13:23;;;;;;;3.97;0.60;;;;;;;;;;2090569;28;20029;-50
2024/03/05 01:14:25;;;;;;;3.45;0.90;;;;;;;;;;2091623;28;20025;-48
2024/03/05 01:15:26;;;;;;;5.40;0.90;;;;;;;;;;2091371;28;20506;-50
2024/03/05 01:16:27;;;;;;;5.05;0.82;;;;;;;;;;2091618;28;20060;-48
2024/03/05 01:17:28;;;;;;;3.55;1.00;;;;;;;;;;2091449;28;20106;-50
2024/03/05 01:18:30;;;;;;;7.35;1.02;;;;;;;;;;2091225;28;20025;-50
2024/03/05 01:19:32;;;;;;;4.32;0.90;;;;;;;;;;2091388;28;20020;-50
2024/03/05 01:20:33;;;;;;;5.13;1.05;;;;;;;;;;2091987;28;20036;-50
2024/03/05 01:21:34;;;;;;;4.85;0.63;;;;;;;;;;2091318;28;20059;-48
2024/03/05 01:22:36;;;;;;;5.88;1.02;;;;;;;;;;2091417;28;20079;-52
2024/03/05 01:23:38;;;;;;;4.70;0.80;;;;;;;;;;2091366;28;20543;-48
2024/03/05 01:24:39;;;;;;;8.02;1.30;;;;;;;;;;2091397;28;20009;-47
2024/03/05 01:25:40;;;;;;;5.55;0.90;;;;;;;;;;2089779;28;20024;-48
2024/03/05 01:26:43;;;;;;;5.82;1.33;;;;;;;;;;2083670;28;20017;-46
2024/03/05 01:27:44;;;;;;;5.55;1.02;;;;;;;;;;2082014;28;20491;-45
2024/03/05 01:28:45;;;;;;;4.85;0.82;;;;;;;;;;2082480;28;20021;-46
2024/03/05 01:29:47;;;;;;;4.38;0.82;;;;;;;;;;2089052;28;20028;-51
2024/03/05 01:30:48;;;;;;;4.93;1.13;;;;;;;;;;2091582;28;20100;-48
2024/03/05 01:31:56;;;;;;;3.97;0.63;;;;;;;;;;2091215;28;20025;-48
2024/03/05 01:32:57;;;;;;;4.22;0.98;;;;;;;;;;2091465;28;20045;-47
2024/03/05 01:33:58;;;;;;;6.43;0.95;;;;;;;;;;2090823;28;20036;-47
2024/03/05 01:35:01;;;;;;;5.88;0.98;;;;;;;;;;2089963;28;20013;-49
2024/03/05 01:36:03;;;;;;;5.30;0.90;;;;;;;;;;2090289;28;20032;-49
2024/03/05 01:37:04;;;;;;;3.75;0.98;;;;;;;;;;2090166;28;20028;-48
2024/03/05 01:38:06;;;;;;;6.18;0.93;;;;;;;;;;2089286;28;20484;-48
2024/03/05 01:39:09;;;;;;;5.65;0.90;;;;;;;;;;2089813;28;20058;-47
2024/03/05 01:40:10;;;;;;;4.50;0.80;;;;;;;;;;2089935;28;20052;-49
2024/03/05 01:41:13;;;;;;;7.07;1.25;;;;;;;;;;2089924;28;20483;-49
2024/03/05 01:42:14;;;;;;;4.07;0.80;;;;;;;;;;2090004;28;20083;-48
2024/03/05 01:43:16;;;;;;;5.47;0.73;;;;;;;;;;2089833;28;20025;-49
2024/03/05 01:44:18;;;;;;;5.95;0.90;;;;;;;;;;2086760;28;20076;-51
2024/03/05 01:45:19;;;;;;;4.13;1.23;;;;;;;;;;2088612;28;20024;-49
2024/03/05 01:46:20;;;;;;;5.22;0.93;;;;;;;;;;2089350;28;20017;-49
2024/03/05 01:47:22;;;;;;;4.97;1.00;;;;;;;;;;2089259;28;20013;-50
2024/03/05 01:48:23;;;;;;;3.88;0.70;;;;;;;;;;2090057;28;20037;-49
2024/03/05 01:49:25;;;;;;;7.63;1.08;;;;;;;;;;2089767;28;20013;-46
2024/03/05 01:50:28;;;;;;;3.22;0.98;;;;;;;;;;2090029;28;20017;-48
2024/03/05 01:51:31;;;;;;;3.85;1.10;;;;;;;;;;2090102;28;20033;-48
2024/03/05 01:52:32;;;;;;;5.45;0.93;;;;;;;;;;2094388;28;20036;-48
2024/03/05 01:53:34;;;;;;;3.17;0.68;;;;;;;;;;2088568;28;20021;-50
2024/03/05 01:54:35;;;;;;;4.05;0.90;;;;;;;;;;2080566;28;20053;-50
2024/03/05 01:55:38;;;;;;;4.38;1.00;;;;;;;;;;2081210;28;20423;-65
2024/03/05 01:56:39;;;;;;;2.85;0.82;;;;;;;;;;2089154;28;20439;-49
2024/03/05 01:57:42;;;;;;;4.80;0.90;;;;;;;;;;2089318;28;20159;-48
2024/03/05 01:58:43;;;;;;;5.15;1.02;;;;;;;;;;2090035;28;20235;-49
2024/03/05 01:59:45;;;;;;;4.22;1.05;;;;;;;;;;2089753;28;20043;-49
2024/03/05 02:00:47;;;;;;;7.18;0.85;;;;;;;;;;2089723;28;20017;-48
2024/03/05 02:01:48;;;;;;;4.00;0.70;;;;;;;;;;2089820;28;20025;-48
2024/03/05 02:02:50;;;;;;;6.55;1.10;;;;;;;;;;2089653;28;20455;-49
2024/03/05 02:03:53;;;;;;;5.03;1.08;;;;;;;;;;2089871;28;20082;-49
2024/03/05 02:04:55;;;;;;;5.00;1.05;;;;;;;;;;2089539;28;20507;-49
2024/03/05 02:05:59;;;;;;;4.63;1.10;;;;;;;;;;2089589;28;20036;-45
2024/03/05 02:07:06;;;;;;;4.88;0.50;;;;;;;;;;2090072;28;20037;-49
2024/03/05 02:08:07;;;;;;;5.72;0.80;;;;;;;;;;2089592;28;20456;-46
2024/03/05 02:09:11;;;;;;;5.57;1.00;;;;;;;;;;2081029;28;20040;-50
2024/03/05 02:10:12;;;;;;;4.38;0.93;;;;;;;;;;2080959;28;20013;-48
2024/03/05 02:11:14;;;;;;;4.25;0.70;;;;;;;;;;2081108;28;20014;-49
2024/03/05 02:12:15;;;;;;;3.53;0.98;;;;;;;;;;2074401;28;20109;-48
2024/03/05 02:13:16;;;;;;;3.13;0.70;;;;;;;;;;2081321;28;20036;-46
2024/03/05 02:14:18;;;;;;;7.05;1.23;;;;;;;;;;2087768;28;20021;-50
2024/03/05 02:15:20;;;;;;;5.90;0.80;;;;;;;;;;2089054;28;20029;-48
2024/03/05 02:16:22;;;;;;;3.63;0.80;;;;;;;;;;2080908;28;20010;-50
2024/03/05 02:17:23;;;;;;;6.03;1.10;;;;;;;;;;2081163;28;20026;-50
2024/03/05 02:18:24;;;;;;;5.35;0.88;;;;;;;;;;2081684;28;20016;-50
2024/03/05 02:19:26;;;;;;;3.65;0.98;;;;;;;;;;2088342;28;20088;-49
2024/03/05 02:20:28;;;;;;;4.85;1.20;;;;;;;;;;2087653;28;20621;-48
2024/03/05 02:21:31;;;;;;;5.35;0.90;;;;;;;;;;2085507;28;20025;-48
2024/03/05 02:22:32;;;;;;;3.03;0.85;;;;;;;;;;2087191;28;20017;-49
2024/03/05 02:23:33;;;;;;;4.07;0.68;;;;;;;;;;2085641;28;20087;-49
2024/03/05 02:24:35;;;;;;;5.55;1.10;;;;;;;;;;2089530;28;20024;-47
2024/03/05 02:25:36;;;;;;;4.40;0.90;;;;;;;;;;2089195;28;20416;-47
2024/03/05 02:26:37;;;;;;;4.55;0.95;;;;;;;;;;2089185;28;20013;-45
2024/03/05 02:27:39;;;;;;;4.10;0.98;;;;;;;;;;2089223;28;20017;-46
2024/03/05 02:28:41;;;;;;;5.80;0.95;;;;;;;;;;2089466;28;20028;-47
2024/03/05 02:29:42;;;;;;;3.58;1.08;;;;;;;;;;2089218;28;20037;-47
2024/03/05 02:30:44;;;;;;;2.92;1.25;;;;;;;;;;2088624;28;20488;-47
2024/03/05 02:31:46;;;;;;;4.20;0.93;;;;;;;;;;2089040;28;20021;-47
2024/03/05 02:32:47;;;;;;;3.33;0.90;;;;;;;;;;2088378;28;20047;-48
2024/03/05 02:33:48;;;;;;;3.55;0.82;;;;;;;;;;2091636;28;20029;-46
2024/03/05 02:34:54;;;;;;;2.80;0.77;;;;;;;;;;2090223;28;20025;-46
2024/03/05 02:35:58;;;;;;;6.53;1.00;;;;;;;;;;2087040;28;20021;-46
2024/03/05 02:37:00;;;;;;;5.72;0.77;;;;;;;;;;2087054;28;20400;-48
2024/03/05 02:38:01;;;;;;;6.53;1.50;;;;;;;;;;2089698;28;20024;-47
2024/03/05 02:39:02;;;;;;;1.67;0.45;;;;;;;;;;2086979;28;20101;-47
2024/03/05 02:40:05;;;;;;;7.05;0.85;;;;;;;;;;2089320;28;20082;-47
2024/03/05 02:41:06;;;;;;;4.78;1.00;;;;;;;;;;2089645;28;20021;-48
2024/03/05 02:42:08;;;;;;;5.57;0.88;;;;;;;;;;2093288;28;20013;-47
2024/03/05 02:43:09;;;;;;;4.95;0.80;;;;;;;;;;2096377;28;20032;-48
2024/03/05 02:44:10;;;;;;;2.97;0.93;;;;;;;;;;2087905;28;20067;-47
2024/03/05 02:45:12;;;;;;;6.85;1.00;;;;;;;;;;2089431;28;20029;-48
2024/03/05 02:46:14;;;;;;;4.32;0.57;;;;;;;;;;2088889;28;20025;-47
2024/03/05 02:47:16;;;;;;;3.95;0.88;;;;;;;;;;2089331;28;20021;-48
2024/03/05 02:48:17;;;;;;;5.40;0.80;;;;;;;;;;2088607;28;20096;-48
2024/03/05 02:49:19;;;;;;;5.45;0.80;;;;;;;;;;2089009;28;20025;-47
2024/03/05 02:50:20;;;;;;;4.93;0.57;;;;;;;;;;2089254;28;20020;-46
2024/03/05 02:51:22;;;;;;;3.13;0.70;;;;;;;;;;2089489;28;20029;-46
2024/03/05 02:52:23;;;;;;;2.72;0.35;;;;;;;;;;2089408;28;20021;-48
2024/03/05 02:53:25;;;;;;;4.15;1.05;;;;;;;;;;2086317;28;20037;-48
2024/03/05 02:54:27;;;;;;;4.20;1.50;;;;;;;;;;2084410;28;20036;-47
2024/03/05 02:55:28;;;;;;;3.65;0.70;;;;;;;;;;2080479;28;20040;-49
2024/03/05 02:56:30;;;;;;;4.57;0.73;;;;;;;;;;2072492;28;20582;-48
2024/03/05 02:57:31;;;;;;;2.95;0.60;;;;;;;;;;2086552;28;20021;-47
2024/03/05 02:58:32;;;;;;;1.80;0.70;;;;;;;;;;2086306;28;20013;-48
2024/03/05 02:59:34;;;;;;;3.92;0.82;;;;;;;;;;2088538;28;20028;-48
2024/03/05 03:00:35;;;;;;;4.93;0.75;;;;;;;;;;2089432;28;20052;-46
2024/03/05 03:01:36;;;;;;;3.30;0.60;;;;;;;;;;2088449;28;20367;-49
2024/03/05 03:02:37;;;;;;;3.80;0.60;;;;;;;;;;2088514;28;20021;-49
2024/03/05 03:03:39;;;;;;;3.25;0.68;;;;;;;;;;2089338;28;20100;-47
2024/03/05 03:04:40;;;;;;;3.70;0.80;;;;;;;;;;2089062;28;20009;-48
2024/03/05 03:05:41;;;;;;;3.30;0.43;;;;;;;;;;2089305;28;20487;-50
2024/03/05 03:06:43;;;;;;;5.28;0.70;;;;;;;;;;2089401;28;20097;-49
2024/03/05 03:07:44;;;;;;;3.88;0.50;;;;;;;;;;2089133;28;20021;-48
2024/03/05 03:08:45;;;;;;;2.47;0.65;;;;;;;;;;2088940;28;20015;-48
2024/03/05 03:09:47;;;;;;;2.75;0.57;;;;;;;;;;2089336;28;20122;-50
2024/03/05 03:10:49;;;;;;;4.60;0.60;;;;;;;;;;2089241;28;20017;-50
2024/03/05 03:11:50;;;;;;;2.85;0.50;;;;;;;;;;2088733;28;20047;-49
2024/03/05 03:12:51;;;;;;;3.00;0.80;;;;;;;;;;2082618;28;20024;-50
2024/03/05 03:13:53;;;;;;;2.85;0.55;;;;;;;;;;2081741;28;20074;-50
2024/03/05 03:14:54;;;;;;;2.33;0.57;;;;;;;;;;2089119;28;20108;-50
2024/03/05 03:15:55;;;;;;;3.38;0.43;;;;;;;;;;2088543;28;20033;-48
2024/03/05 03:16:56;;;;;;;3.00;0.43;;;;;;;;;;2088287;28;20048;-50
2024/03/05 03:17:58;;;;;;;2.42;0.70;;;;;;;;;;2088186;28;20070;-49
2024/03/05 03:18:59;;;;;;;3.53;0.70;;;;;;;;;;2091410;28;20070;-49
2024/03/05 03:20:00;;;;;;;3.75;0.80;;;;;;;;;;2097583;28;20027;-50
2024/03/05 03:21:04;;;;;;;1.77;0.40;;;;;;;;;;2090123;28;20035;-46
2024/03/05 03:22:06;;;;;;;4.75;0.40;;;;;;;;;;2090985;28;20040;-48
2024/03/05 03:23:07;;;;;;;3.20;0.70;;;;;;;;;;2097622;28;20052;-49
2024/03/05 03:24:11;;;;;;;2.75;0.68;;;;;;;;;;2090660;28;20025;-50
2024/03/05 03:25:13;;;;;;;2.25;0.50;;;;;;;;;;2083387;28;20091;-49
2024/03/05 03:26:14;;;;;;;1.75;0.40;;;;;;;;;;2087597;28;20021;-48
2024/03/05 03:27:15;;;;;;;4.88;0.60;;;;;;;;;;2085943;28;20089;-50
2024/03/05 03:28:17;;;;;;;3.30;0.40;;;;;;;;;;2081231;28;20021;-49
2024/03/05 03:29:18;;;;;;;2.28;0.57;;;;;;;;;;2088330;28;20017;-50
2024/03/05 03:30:20;;;;;;;2.72;0.60;;;;;;;;;;2089625;28;20025;-49
2024/03/05 03:31:22;;;;;;;3.35;0.50;;;;;;;;;;2088148;28;20002;-50
2024/03/05 03:32:23;;;;;;;3.22;0.55;;;;;;;;;;2087193;28;20124;-49
2024/03/05 03:33:26;;;;;;;2.92;0.50;;;;;;;;;;2081195;28;20021;-50
2024/03/05 03:34:27;;;;;;;3.75;0.82;;;;;;;;;;2086004;28;20028;-49
2024/03/05 03:35:28;;;;;;;4.28;0.57;;;;;;;;;;2094352;28;20015;-51
2024/03/05 03:36:29;;;;;;;3.30;0.50;;;;;;;;;;2090370;28;20103;-49
2024/03/05 03:37:31;;;;;;;2.75;0.55;;;;;;;;;;2088200;28;20543;-49
2024/03/05 03:38:34;;;;;;;3.70;0.70;;;;;;;;;;2087324;28;20025;-47
2024/03/05 03:39:35;;;;;;;1.75;0.45;;;;;;;;;;2087191;28;20021;-49
2024/03/05 03:40:37;;;;;;;1.98;0.40;;;;;;;;;;2088213;28;20384;-49
2024/03/05 03:41:41;;;;;;;2.03;0.43;;;;;;;;;;2089478;28;20065;-49
2024/03/05 03:42:44;;;;;;;1.00;0.30;;;;;;;;;;2087956;28;20536;-48
2024/03/05 03:43:46;;;;;;;2.28;0.25;;;;;;;;;;2089211;28;20009;-49
2024/03/05 03:44:47;;;;;;;1.98;0.40;;;;;;;;;;2089006;28;20020;-49
2024/03/05 03:45:49;;;;;;;4.55;0.50;;;;;;;;;;2087276;28;20084;-49
2024/03/05 03:46:51;;;;;;;2.88;0.38;;;;;;;;;;2081669;28;20032;-50
2024/03/05 03:47:52;;;;;;;1.83;0.45;;;;;;;;;;2089333;28;20039;-47
2024/03/05 03:48:53;;;;;;;1.35;0.35;;;;;;;;;;2088891;28;20036;-48
2024/03/05 03:49:54;;;;;;;3.10;0.50;;;;;;;;;;2088808;28;20036;-47
2024/03/05 03:50:56;;;;;;;2.25;0.40;;;;;;;;;;2088888;28;20456;-47
2024/03/05 03:51:57;;;;;;;1.45;0.28;;;;;;;;;;2088905;28;20016;-48
2024/03/05 03:52:59;;;;;;;1.88;0.32;;;;;;;;;;2088385;28;20545;-48
2024/03/05 03:54:04;;;;;;;1.95;0.32;;;;;;;;;;2088252;28;20110;-46
2024/03/05 03:55:08;;;;;;;2.78;0.40;;;;;;;;;;2087556;28;20541;-48
2024/03/05 03:56:10;;;;;;;1.83;0.38;;;;;;;;;;2087559;28;20036;-47
2024/03/05 03:57:11;;;;;;;1.45;0.20;;;;;;;;;;2083620;28;20024;-48
2024/03/05 03:58:13;;;;;;;3.25;0.40;;;;;;;;;;2087981;28;20021;-48
2024/03/05 03:59:14;;;;;;;2.70;0.50;;;;;;;;;;2085734;28;20041;-48
2024/03/05 04:00:19;;;;;;;1.63;0.45;;;;;;;;;;2085546;28;20021;-48
2024/03/05 04:01:20;;;;;;;2.85;0.40;;;;;;;;;;2080574;28;20419;-47
2024/03/05 04:02:22;;;;;;;2.20;0.40;;;;;;;;;;2082176;28;20112;-48
2024/03/05 04:03:23;;;;;;;1.98;0.40;;;;;;;;;;2081061;28;20052;-47
2024/03/05 04:04:24;;;;;;;2.00;0.50;;;;;;;;;;2081047;28;20116;-47
2024/03/05 04:05:25;;;;;;;2.80;0.60;;;;;;;;;;2088707;28;20029;-54
2024/03/05 04:06:28;;;;;;;2.67;0.43;;;;;;;;;;2088610;28;20017;-53
2024/03/05 04:07:30;;;;;;;2.55;0.60;;;;;;;;;;2086306;28;20090;-55
2024/03/05 04:08:32;;;;;;;2.05;0.32;;;;;;;;;;2086788;28;20345;-52
2024/03/05 04:09:33;;;;;;;1.92;0.35;;;;;;;;;;2085252;28;20109;-50
2024/03/05 04:10:35;;;;;;;1.85;0.40;;;;;;;;;;2089071;28;20017;-54
2024/03/05 04:11:36;;;;;;;2.22;0.47;;;;;;;;;;2088453;28;20009;-53
2024/03/05 04:12:41;;;;;;;1.58;0.30;;;;;;;;;;2088100;28;20487;-55
2024/03/05 04:13:43;;;;;;;2.55;0.30;;;;;;;;;;2089169;28;20098;-53
2024/03/05 04:14:44;;;;;;;2.92;0.28;;;;;;;;;;2088827;28;20025;-51
2024/03/05 04:15:46;;;;;;;4.13;0.40;;;;;;;;;;2088884;28;20068;-47
2024/03/05 04:16:47;;;;;;;2.67;0.57;;;;;;;;;;2089218;28;20049;-48
2024/03/05 04:17:49;;;;;;;2.05;0.32;;;;;;;;;;2086767;28;20039;-48
2024/03/05 04:18:50;;;;;;;2.15;0.68;;;;;;;;;;2088315;28;20096;-46
2024/03/05 04:19:52;;;;;;;0.98;0.32;;;;;;;;;;2089038;28;20158;-47
2024/03/05 04:20:53;;;;;;;2.80;0.50;;;;;;;;;;2088557;28;20009;-47
2024/03/05 04:21:54;;;;;;;1.77;0.50;;;;;;;;;;2089246;28;20037;-48
2024/03/05 04:22:56;;;;;;;4.60;0.50;;;;;;;;;;2088694;28;20070;-46
2024/03/05 04:23:57;;;;;;;2.28;0.50;;;;;;;;;;2089078;28;20021;-48
2024/03/05 04:24:59;;;;;;;2.17;0.55;;;;;;;;;;2089139;28;20070;-48
2024/03/05 04:26:07;;;;;;;1.23;0.30;;;;;;;;;;2088790;28;20017;-48
2024/03/05 04:27:11;;;;;;;3.67;0.70;;;;;;;;;;2089038;28;20104;-46
2024/03/05 04:28:12;;;;;;;1.45;0.30;;;;;;;;;;2089338;28;20053;-45
2024/03/05 04:29:19;;;;;;;1.83;0.30;;;;;;;;;;2088835;28;20418;-44
2024/03/05 04:30:20;;;;;;;1.27;0.30;;;;;;;;;;2088112;28;20013;-44
2024/03/05 04:31:30;;;;;;;1.42;0.30;;;;;;;;;;2089039;28;20029;-47
2024/03/05 04:32:31;;;;;;;1.83;0.50;;;;;;;;;;2087200;28;20071;-48
2024/03/05 04:33:33;;;;;;;1.65;0.50;;;;;;;;;;2085585;28;20056;-49
2024/03/05 04:34:40;;;;;;;2.20;0.68;;;;;;;;;;2086242;28;20013;-51
2024/03/05 04:35:42;;;;;;;2.05;0.43;;;;;;;;;;2089078;28;20367;-48
2024/03/05 04:36:44;;;;;;;1.98;0.50;;;;;;;;;;2088852;28;20332;-50
2024/03/05 04:37:45;;;;;;;1.27;0.30;;;;;;;;;;2089070;28;20032;-49
2024/03/05 04:38:47;;;;;;;2.40;0.40;;;;;;;;;;2088389;28;20025;-46
2024/03/05 04:39:48;;;;;;;2.63;0.50;;;;;;;;;;2088441;28;20421;-46
2024/03/05 04:40:50;;;;;;;2.72;0.50;;;;;;;;;;2086864;28;20091;-50
2024/03/05 04:41:51;;;;;;;1.05;0.30;;;;;;;;;;2089224;28;20033;-49
2024/03/05 04:42:53;;;;;;;2.10;0.38;;;;;;;;;;2080815;28;20362;-50
2024/03/05 04:43:55;;;;;;;2.80;0.40;;;;;;;;;;2088552;28;20021;-50
2024/03/05 04:44:56;;;;;;;4.10;0.40;;;;;;;;;;2088400;28;20025;-48
2024/03/05 04:45:58;;;;;;;1.30;0.20;;;;;;;;;;2088146;28;20021;-49
2024/03/05 04:46:59;;;;;;;1.65;0.50;;;;;;;;;;2091927;28;20028;-50
2024/03/05 04:48:00;;;;;;;2.05;0.45;;;;;;;;;;2096326;28;20066;-52
2024/03/05 04:49:02;;;;;;;3.40;0.60;;;;;;;;;;2089166;28;20104;-50
2024/03/05 04:50:05;;;;;;;1.23;0.38;;;;;;;;;;2088293;28;20025;-52
2024/03/05 04:51:09;;;;;;;2.05;0.30;;;;;;;;;;2089112;28;20013;-48
2024/03/05 04:52:10;;;;;;;1.73;0.30;;;;;;;;;;2089498;28;20056;-51
2024/03/05 04:53:12;;;;;;;3.85;0.70;;;;;;;;;;2089645;28;20044;-51
2024/03/05 04:54:14;;;;;;;2.33;0.50;;;;;;;;;;2089756;28;20380;-52
2024/03/05 04:55:15;;;;;;;4.57;0.43;;;;;;;;;;2089185;28;20116;-50
2024/03/05 04:56:18;;;;;;;2.63;0.57;;;;;;;;;;2087962;28;20044;-47
2024/03/05 04:57:20;;;;;;;1.00;0.30;;;;;;;;;;2082051;28;20468;-49
2024/03/05 04:58:21;;;;;;;1.58;0.30;;;;;;;;;;2087082;28;20021;-49
2024/03/05 04:59:22;;;;;;;2.15;0.50;;;;;;;;;;2089381;28;20040;-48
2024/03/05 05:00:23;;;;;;;1.58;0.40;;;;;;;;;;2088818;28;20029;-48
2024/03/05 05:01:25;;;;;;;2.47;0.30;;;;;;;;;;2088585;28;20151;-51
2024/03/05 05:02:26;;;;;;;1.48;0.20;;;;;;;;;;2089987;28;20029;-50
2024/03/05 05:03:27;;;;;;;0.93;0.20;;;;;;;;;;2088499;28;20029;-50
2024/03/05 05:04:29;;;;;;;0.90;0.30;;;;;;;;;;2088415;28;20685;-49
2024/03/05 05:05:31;;;;;;;2.85;0.47;;;;;;;;;;2089555;28;20029;-51
2024/03/05 05:06:32;;;;;;;1.67;0.40;;;;;;;;;;2089424;28;20043;-49
2024/03/05 05:07:34;;;;;;;2.55;0.50;;;;;;;;;;2089609;28;20122;-48
2024/03/05 05:08:35;;;;;;;1.60;0.30;;;;;;;;;;2082340;28;20010;-50
2024/03/05 05:09:40;;;;;;;3.47;0.40;;;;;;;;;;2087987;28;20021;-49
2024/03/05 05:10:42;;;;;;;2.72;0.40;;;;;;;;;;2082965;28;20021;-51
2024/03/05 05:11:43;;;;;;;3.10;0.43;;;;;;;;;;2090014;28;20074;-48
2024/03/05 05:12:45;;;;;;;1.95;0.40;;;;;;;;;;2090276;28;20464;-49
2024/03/05 05:13:46;;;;;;;3.85;0.50;;;;;;;;;;2090589;28;20048;-50
2024/03/05 05:14:47;;;;;;;2.60;0.70;;;;;;;;;;2090394;28;20028;-47
2024/03/05 05:15:49;;;;;;;3.55;0.60;;;;;;;;;;2089000;28;20514;-50
2024/03/05 05:16:51;;;;;;;4.20;0.50;;;;;;;;;;2083112;28;20399;-47
2024/03/05 05:17:53;;;;;;;0.77;0.38;;;;;;;;;;2087342;28;20024;-50
2024/03/05 05:18:54;;;;;;;1.48;0.40;;;;;;;;;;2091300;28;20483;-49
2024/03/05 05:19:55;;;;;;;2.33;0.43;;;;;;;;;;2090055;28;20025;-50
2024/03/05 05:20:57;;;;;;;1.77;0.50;;;;;;;;;;2089965;28;20033;-48
2024/03/05 05:21:58;;;;;;;1.23;0.30;;;;;;;;;;2089673;28;20025;-48
2024/03/05 05:22:59;;;;;;;2.70;0.50;;;;;;;;;;2082140;28;20030;-48
2024/03/05 05:24:00;;;;;;;2.72;0.50;;;;;;;;;;2087627;28;20044;-47
2024/03/05 05:25:02;;;;;;;2.80;0.75;;;;;;;;;;2089794;28;20056;-47
2024/03/05 05:26:03;;;;;;;1.23;0.38;;;;;;;;;;2089276;28;20065;-48
2024/03/05 05:27:05;;;;;;;2.38;0.52;;;;;;;;;;2086940;28;20298;-48
2024/03/05 05:28:06;;;;;;;1.65;0.30;;;;;;;;;;2083876;28;20057;-50
2024/03/05 05:29:07;;;;;;;2.72;0.43;;;;;;;;;;2090447;28;20027;-49
2024/03/05 05:30:10;;;;;;;2.35;0.45;;;;;;;;;;2090099;28;20503;-48
2024/03/05 05:31:24;;;;;;;2.00;0.45;;;;;;;;;;2090370;28;20025;-47
2024/03/05 05:32:26;;;;;;;1.20;0.52;;;;;;;;;;2090060;28;20434;-49
2024/03/05 05:33:28;;;;;;;3.15;0.60;;;;;;;;;;2090099;28;20025;-48
2024/03/05 05:34:29;;;;;;;2.72;0.73;;;;;;;;;;2090115;28;20439;-53
2024/03/05 05:35:30;;;;;;;2.05;0.43;;;;;;;;;;2089715;28;20079;-53
2024/03/05 05:36:31;;;;;;;4.43;0.52;;;;;;;;;;2089004;28;20020;-51
2024/03/05 05:37:33;;;;;;;2.60;0.50;;;;;;;;;;2089700;28;20036;-53
2024/03/05 05:38:34;;;;;;;2.60;0.30;;;;;;;;;;2089423;28;20005;-54
2024/03/05 05:39:35;;;;;;;1.42;0.50;;;;;;;;;;2081141;28;20381;-53
2024/03/05 05:40:37;;;;;;;3.40;0.77;;;;;;;;;;2072054;28;20032;-54
2024/03/05 05:41:38;;;;;;;3.97;0.52;;;;;;;;;;2080983;28;20124;-54
2024/03/05 05:42:39;;;;;;;4.13;0.70;;;;;;;;;;2090122;28;20025;-54
2024/03/05 05:43:41;;;;;;;1.25;0.25;;;;;;;;;;2090025;28;20013;-54
2024/03/05 05:44:42;;;;;;;3.50;0.45;;;;;;;;;;2089933;28;20547;-52
2024/03/05 05:45:46;;;;;;;1.73;0.45;;;;;;;;;;2090053;28;20021;-55
2024/03/05 05:46:49;;;;;;;2.63;0.75;;;;;;;;;;2085952;28;20490;-55
2024/03/05 05:47:54;;;;;;;1.70;0.30;;;;;;;;;;2090019;28;20013;-53
2024/03/05 05:48:55;;;;;;;1.45;0.40;;;;;;;;;;2089899;28;20036;-55
2024/03/05 05:49:58;;;;;;;3.33;0.43;;;;;;;;;;2087023;28;20060;-54
2024/03/05 05:51:00;;;;;;;0.95;0.40;;;;;;;;;;2081841;28;20021;-52
2024/03/05 05:52:02;;;;;;;1.70;0.43;;;;;;;;;;2088280;28;20528;-54
2024/03/05 05:53:05;;;;;;;1.85;0.60;;;;;;;;;;2089114;28;20515;-51
2024/03/05 05:54:10;;;;;;;1.75;0.20;;;;;;;;;;2089385;28;20035;-54
2024/03/05 05:55:15;;;;;;;4.38;0.40;;;;;;;;;;2091347;28;20035;-54
2024/03/05 05:56:17;;;;;;;2.13;0.50;;;;;;;;;;2089857;28;20033;-55
2024/03/05 05:57:18;;;;;;;1.75;0.60;;;;;;;;;;2089905;28;20025;-54
2024/03/05 05:58:21;;;;;;;3.05;0.52;;;;;;;;;;2089219;28;20387;-54
2024/03/05 05:59:22;;;;;;;1.55;0.40;;;;;;;;;;2084990;28;20025;-48
2024/03/05 06:00:32;;;;;;;2.95;0.60;;;;;;;;;;2081697;28;20079;-50
2024/03/05 06:01:34;;;;;;;2.55;0.43;;;;;;;;;;2089056;28;20333;-53
2024/03/05 06:02:36;;;;;;;2.85;0.63;;;;;;;;;;2087773;28;20014;-54
2024/03/05 06:03:38;;;;;;;2.75;0.50;;;;;;;;;;2085560;28;20033;-53
2024/03/05 06:04:41;;;;;;;2.58;0.45;;;;;;;;;;2085497;28;20127;-54
2024/03/05 06:05:43;;;;;;;2.67;0.50;;;;;;;;;;2088607;28;20021;-53
2024/03/05 06:06:44;;;;;;;1.75;0.70;;;;;;;;;;2089870;28;20059;-51
2024/03/05 06:07:46;;;;;;;1.05;0.22;;;;;;;;;;2089022;28;20033;-53
2024/03/05 06:08:48;;;;;;;1.70;0.40;;;;;;;;;;2089391;28;20040;-56
2024/03/05 06:09:50;;;;;;;3.97;0.80;;;;;;;;;;2089408;28;20032;-48
2024/03/05 06:10:52;;;;;;;6.82;0.73;;;;;;;;;;2089805;28;20024;-54